Time,TemperatureF,DewpointF,PressureIn,WindDirection,WindDirectionDegrees,WindSpeedMPH,WindSpeedGustMPH,Humidity,HourlyPrecipIn,Conditions,Clouds,dailyrainin,SoftwareType,DateUTC
2013-05-02 00:01:00,80.8,77.0,29.87,NE,51,5.0,11.0,87,0.00,,,0.00,weatherlink.com 1.10,2013-05-02 04:01:00,
2013-05-02 00:16:00,80.9,77.0,29.86,ENE,74,3.0,11.0,87,0.00,,,0.00,weatherlink.com 1.10,2013-05-02 04:16:00,
2013-05-02 00:31:00,80.9,77.0,29.86,NE,55,5.0,10.0,88,0.00,,,0.00,weatherlink.com 1.10,2013-05-02 04:31:00,
2013-05-02 00:46:00,80.8,77.0,29.86,NE,40,6.0,11.0,88,0.00,,,0.00,weatherlink.com 1.10,2013-05-02 04:46:00,
2013-05-02 01:01:00,80.6,77.0,29.85,East,86,7.0,13.0,88,0.00,,,0.00,weatherlink.com 1.10,2013-05-02 05:01:00,
2013-05-02 01:16:00,80.5,77.0,29.85,ESE,122,1.0,12.0,88,0.00,,,0.00,weatherlink.com 1.10,2013-05-02 05:16:00,
2013-05-02 01:31:00,80.5,77.0,29.84,East,94,3.0,12.0,89,0.00,,,0.00,weatherlink.com 1.10,2013-05-02 05:31:00,
2013-05-02 01:46:00,80.4,77.0,29.84,ESE,111,8.0,11.0,89,0.00,,,0.00,weatherlink.com 1.10,2013-05-02 05:46:00,
2013-05-02 02:02:00,80.3,77.0,29.83,East,79,9.0,9.0,88,0.00,,,0.00,weatherlink.com 1.10,2013-05-02 06:02:00,
2013-05-02 02:17:00,80.2,76.0,29.83,East,96,7.0,10.0,88,0.00,,,0.00,weatherlink.com 1.10,2013-05-02 06:17:00,
2013-05-02 02:32:00,80.2,77.0,29.82,ESE,107,1.0,9.0,89,0.00,,,0.00,weatherlink.com 1.10,2013-05-02 06:32:00,
2013-05-02 02:47:00,80.0,77.0,29.81,ESE,116,7.0,10.0,89,0.00,,,0.00,weatherlink.com 1.10,2013-05-02 06:47:00,
2013-05-02 03:02:00,80.0,77.0,29.81,ESE,105,3.0,8.0,89,0.00,,,0.00,weatherlink.com 1.10,2013-05-02 07:02:00,
2013-05-02 03:17:00,80.0,77.0,29.81,East,96,1.0,8.0,89,0.00,,,0.00,weatherlink.com 1.10,2013-05-02 07:17:00,
2013-05-02 03:32:00,79.8,76.0,29.81,East,98,5.0,11.0,89,0.00,,,0.00,weatherlink.com 1.10,2013-05-02 07:32:00,
2013-05-02 03:47:00,79.8,77.0,29.81,East,83,1.0,9.0,90,0.00,,,0.00,weatherlink.com 1.10,2013-05-02 07:47:00,
2013-05-02 04:02:00,79.8,77.0,29.80,ENE,76,2.0,8.0,90,0.00,,,0.00,weatherlink.com 1.10,2013-05-02 08:02:00,
2013-05-02 04:17:00,79.7,77.0,29.80,East,95,5.0,8.0,90,0.00,,,0.00,weatherlink.com 1.10,2013-05-02 08:17:00,
2013-05-02 04:32:00,79.7,77.0,29.80,ENE,78,3.0,8.0,90,0.00,,,0.00,weatherlink.com 1.10,2013-05-02 08:32:00,
2013-05-02 04:47:00,79.7,77.0,29.81,SE,140,7.0,9.0,90,0.00,,,0.00,weatherlink.com 1.10,2013-05-02 08:47:00,
2013-05-02 05:02:00,79.6,77.0,29.82,ESE,117,3.0,8.0,90,0.00,,,0.00,weatherlink.com 1.10,2013-05-02 09:02:00,
2013-05-02 05:17:00,79.6,77.0,29.82,East,98,6.0,7.0,90,0.00,,,0.00,weatherlink.com 1.10,2013-05-02 09:17:00,
2013-05-02 05:32:00,79.6,76.0,29.82,SE,128,4.0,8.0,89,0.00,,,0.00,weatherlink.com 1.10,2013-05-02 09:32:00,
2013-05-02 05:47:00,79.7,76.0,29.83,ENE,74,3.0,8.0,89,0.00,,,0.00,weatherlink.com 1.10,2013-05-02 09:47:00,
2013-05-02 06:02:00,79.7,76.0,29.83,East,95,2.0,7.0,89,0.00,,,0.00,weatherlink.com 1.10,2013-05-02 10:02:00,
2013-05-02 06:17:00,79.5,76.0,29.83,East,101,3.0,9.0,89,0.00,,,0.00,weatherlink.com 1.10,2013-05-02 10:17:00,
2013-05-02 06:32:00,79.6,76.0,29.83,ESE,105,1.0,7.0,89,0.00,,,0.00,weatherlink.com 1.10,2013-05-02 10:32:00,
2013-05-02 06:47:00,79.8,76.0,29.83,East,84,3.0,8.0,89,0.00,,,0.00,weatherlink.com 1.10,2013-05-02 10:47:00,
2013-05-02 07:02:00,80.5,76.0,29.84,ESE,116,3.0,10.0,87,0.00,,,0.00,weatherlink.com 1.10,2013-05-02 11:02:00,
2013-05-02 07:17:00,81.4,77.0,29.84,ENE,73,4.0,13.0,85,0.00,,,0.00,weatherlink.com 1.10,2013-05-02 11:17:00,
2013-05-02 07:32:00,81.9,77.0,29.85,East,87,6.0,10.0,84,0.00,,,0.00,weatherlink.com 1.10,2013-05-02 11:32:00,
2013-05-02 07:47:00,82.2,77.0,29.85,East,82,8.0,12.0,83,0.00,,,0.00,weatherlink.com 1.10,2013-05-02 11:47:00,
2013-05-02 08:02:00,82.2,77.0,29.86,ESE,122,3.0,13.0,85,0.00,,,0.00,weatherlink.com 1.10,2013-05-02 12:02:00,
2013-05-02 08:17:00,83.2,76.0,29.86,ESE,104,4.0,15.0,80,0.00,,,0.00,weatherlink.com 1.10,2013-05-02 12:17:00,
2013-05-02 08:32:00,83.5,77.0,29.87,East,85,8.0,11.0,80,0.00,,,0.00,weatherlink.com 1.10,2013-05-02 12:32:00,
2013-05-02 08:47:00,83.6,77.0,29.87,SE,126,6.0,13.0,80,0.00,,,0.00,weatherlink.com 1.10,2013-05-02 12:47:00,
2013-05-02 09:02:00,83.6,76.0,29.88,ESE,107,7.0,14.0,78,0.00,,,0.00,weatherlink.com 1.10,2013-05-02 13:02:00,
2013-05-02 09:17:00,83.8,76.0,29.88,East,94,5.0,13.0,78,0.00,,,0.00,weatherlink.com 1.10,2013-05-02 13:17:00,
2013-05-02 09:32:00,84.3,77.0,29.89,East,88,8.0,13.0,78,0.00,,,0.00,weatherlink.com 1.10,2013-05-02 13:32:00,
2013-05-02 09:47:00,84.5,77.0,29.89,SE,128,7.0,11.0,77,0.00,,,0.00,weatherlink.com 1.10,2013-05-02 13:47:00,
2013-05-02 10:02:00,85.1,77.0,29.89,ESE,115,8.0,14.0,77,0.00,,,0.00,weatherlink.com 1.10,2013-05-02 14:02:00,
2013-05-02 10:17:00,85.0,77.0,29.89,ESE,118,7.0,15.0,77,0.00,,,0.00,weatherlink.com 1.10,2013-05-02 14:17:00,
2013-05-02 10:32:00,85.1,77.0,29.88,East,100,9.0,12.0,76,0.00,,,0.00,weatherlink.com 1.10,2013-05-02 14:32:00,
2013-05-02 10:47:00,85.4,77.0,29.89,ESE,113,10.0,14.0,75,0.00,,,0.00,weatherlink.com 1.10,2013-05-02 14:47:00,
2013-05-02 11:02:00,85.5,77.0,29.88,ENE,74,8.0,13.0,76,0.00,,,0.00,weatherlink.com 1.10,2013-05-02 15:02:00,
2013-05-02 11:17:00,84.7,76.0,29.88,East,93,7.0,12.0,76,0.00,,,0.00,weatherlink.com 1.10,2013-05-02 15:17:00,
2013-05-02 11:32:00,84.6,77.0,29.88,East,95,11.0,14.0,77,0.00,,,0.00,weatherlink.com 1.10,2013-05-02 15:32:00,
2013-05-02 11:47:00,85.4,78.0,29.88,NE,53,6.0,14.0,78,0.00,,,0.00,weatherlink.com 1.10,2013-05-02 15:47:00,
2013-05-02 12:02:00,86.8,78.0,29.87,East,84,9.0,13.0,75,0.00,,,0.00,weatherlink.com 1.10,2013-05-02 16:02:00,
2013-05-02 12:17:00,86.6,77.0,29.87,East,84,9.0,11.0,73,0.00,,,0.00,weatherlink.com 1.10,2013-05-02 16:17:00,
2013-05-02 12:32:00,87.0,77.0,29.87,NE,37,2.0,11.0,72,0.00,,,0.00,weatherlink.com 1.10,2013-05-02 16:32:00,
2013-05-02 12:47:00,86.2,77.0,29.86,ESE,102,8.0,11.0,75,0.00,,,0.00,weatherlink.com 1.10,2013-05-02 16:47:00,
2013-05-02 13:02:00,87.2,77.0,29.85,ESE,111,4.0,14.0,72,0.00,,,0.00,weatherlink.com 1.10,2013-05-02 17:02:00,
2013-05-02 13:18:00,86.1,77.0,29.84,ENE,65,9.0,12.0,73,0.00,,,0.00,weatherlink.com 1.10,2013-05-02 17:18:00,
2013-05-02 13:33:00,86.1,77.0,29.83,NNE,27,6.0,16.0,74,0.00,,,0.00,weatherlink.com 1.10,2013-05-02 17:33:00,
2013-05-02 13:48:00,85.8,77.0,29.82,East,101,6.0,14.0,75,0.00,,,0.00,weatherlink.com 1.10,2013-05-02 17:48:00,
2013-05-02 14:03:00,85.6,77.0,29.81,NE,54,5.0,16.0,75,0.00,,,0.00,weatherlink.com 1.10,2013-05-02 18:03:00,
2013-05-02 14:18:00,85.5,78.0,29.80,ENE,77,2.0,14.0,77,0.00,,,0.00,weatherlink.com 1.10,2013-05-02 18:18:00,
2013-05-02 14:33:00,86.1,77.0,29.79,ENE,57,9.0,14.0,74,0.00,,,0.00,weatherlink.com 1.10,2013-05-02 18:33:00,
2013-05-02 14:48:00,85.9,76.0,29.78,ENE,68,12.0,19.0,72,0.00,,,0.00,weatherlink.com 1.10,2013-05-02 18:48:00,
2013-05-02 15:03:00,86.6,76.0,29.78,East,98,16.0,16.0,70,0.00,,,0.00,weatherlink.com 1.10,2013-05-02 19:03:00,
2013-05-02 15:18:00,86.3,77.0,29.77,ENE,61,13.0,19.0,73,0.00,,,0.00,weatherlink.com 1.10,2013-05-02 19:18:00,
2013-05-02 15:33:00,86.6,77.0,29.77,ENE,71,4.0,17.0,74,0.00,,,0.00,weatherlink.com 1.10,2013-05-02 19:33:00,
2013-05-02 15:48:00,86.3,77.0,29.77,SE,125,6.0,14.0,74,0.00,,,0.00,weatherlink.com 1.10,2013-05-02 19:48:00,
2013-05-02 16:03:00,85.4,77.0,29.77,ENE,75,13.0,15.0,76,0.00,,,0.00,weatherlink.com 1.10,2013-05-02 20:03:00,
2013-05-02 16:18:00,84.7,77.0,29.77,East,89,7.0,13.0,78,0.00,,,0.00,weatherlink.com 1.10,2013-05-02 20:18:00,
2013-05-02 16:33:00,84.3,77.0,29.77,ENE,65,9.0,14.0,79,0.00,,,0.00,weatherlink.com 1.10,2013-05-02 20:33:00,
2013-05-02 16:48:00,83.9,77.0,29.76,East,91,7.0,16.0,80,0.00,,,0.00,weatherlink.com 1.10,2013-05-02 20:48:00,
2013-05-02 17:03:00,83.9,77.0,29.76,ENE,67,4.0,15.0,80,0.00,,,0.00,weatherlink.com 1.10,2013-05-02 21:03:00,
2013-05-02 17:18:00,83.7,77.0,29.75,ENE,74,8.0,14.0,80,0.00,,,0.00,weatherlink.com 1.10,2013-05-02 21:18:00,
2013-05-02 17:33:00,83.5,76.0,29.75,NE,53,6.0,15.0,78,0.00,,,0.00,weatherlink.com 1.10,2013-05-02 21:33:00,
2013-05-02 17:48:00,83.1,76.0,29.74,ENE,69,8.0,17.0,80,0.00,,,0.00,weatherlink.com 1.10,2013-05-02 21:48:00,
2013-05-02 18:03:00,82.8,76.0,29.75,NE,46,10.0,16.0,80,0.00,,,0.00,weatherlink.com 1.10,2013-05-02 22:03:00,
2013-05-02 18:18:00,82.5,76.0,29.77,ESE,113,11.0,17.0,80,0.00,,,0.00,weatherlink.com 1.10,2013-05-02 22:18:00,
2013-05-02 18:33:00,82.3,76.0,29.79,NE,51,5.0,14.0,82,0.00,,,0.00,weatherlink.com 1.10,2013-05-02 22:33:00,
2013-05-02 18:48:00,82.2,77.0,29.79,East,92,6.0,11.0,84,0.00,,,0.00,weatherlink.com 1.10,2013-05-02 22:48:00,
2013-05-02 19:03:00,81.9,77.0,29.80,ESE,114,8.0,11.0,84,0.00,,,0.00,weatherlink.com 1.10,2013-05-02 23:03:00,
2013-05-02 19:18:00,81.8,77.0,29.80,ENE,76,5.0,13.0,84,0.00,,,0.00,weatherlink.com 1.10,2013-05-02 23:18:00,
2013-05-02 19:33:00,81.6,77.0,29.80,ENE,58,4.0,10.0,86,0.00,,,0.00,weatherlink.com 1.10,2013-05-02 23:33:00,
2013-05-02 19:48:00,81.5,77.0,29.81,East,82,2.0,8.0,86,0.00,,,0.00,weatherlink.com 1.10,2013-05-02 23:48:00,
2013-05-02 20:03:00,81.4,77.0,29.81,NE,37,7.0,10.0,86,0.00,,,0.00,weatherlink.com 1.10,2013-05-03 00:03:00,
2013-05-02 20:18:00,81.4,77.0,29.82,NE,34,8.0,9.0,86,0.00,,,0.00,weatherlink.com 1.10,2013-05-03 00:18:00,
2013-05-02 20:33:00,81.3,77.0,29.82,East,85,2.0,9.0,86,0.00,,,0.00,weatherlink.com 1.10,2013-05-03 00:33:00,
2013-05-02 20:48:00,81.3,77.0,29.82,East,82,2.0,9.0,86,0.00,,,0.00,weatherlink.com 1.10,2013-05-03 00:48:00,
2013-05-02 21:03:00,81.2,77.0,29.83,ENE,75,3.0,9.0,86,0.00,,,0.00,weatherlink.com 1.10,2013-05-03 01:03:00,
2013-05-02 21:18:00,81.2,77.0,29.83,NE,55,3.0,7.0,86,0.00,,,0.00,weatherlink.com 1.10,2013-05-03 01:18:00,
2013-05-02 21:33:00,81.1,77.0,29.84,East,81,5.0,7.0,86,0.00,,,0.00,weatherlink.com 1.10,2013-05-03 01:33:00,
2013-05-02 21:48:00,81.1,77.0,29.84,ENE,57,2.0,9.0,86,0.00,,,0.00,weatherlink.com 1.10,2013-05-03 01:48:00,
2013-05-02 22:03:00,81.1,77.0,29.85,East,91,2.0,8.0,86,0.00,,,0.00,weatherlink.com 1.10,2013-05-03 02:03:00,
2013-05-02 22:18:00,81.0,77.0,29.85,East,89,7.0,8.0,86,0.00,,,0.00,weatherlink.com 1.10,2013-05-03 02:18:00,
2013-05-02 22:33:00,81.0,77.0,29.86,East,84,5.0,9.0,87,0.00,,,0.00,weatherlink.com 1.10,2013-05-03 02:33:00,
2013-05-02 22:48:00,81.0,77.0,29.86,East,85,1.0,9.0,87,0.00,,,0.00,weatherlink.com 1.10,2013-05-03 02:48:00,
2013-05-02 23:03:00,81.0,77.0,29.86,ENE,76,1.0,10.0,87,0.00,,,0.00,weatherlink.com 1.10,2013-05-03 03:03:00,
2013-05-02 23:18:00,81.0,77.0,29.86,East,83,2.0,8.0,88,0.00,,,0.00,weatherlink.com 1.10,2013-05-03 03:18:00,
2013-05-02 23:33:00,80.9,77.0,29.86,ENE,62,2.0,6.0,88,0.00,,,0.00,weatherlink.com 1.10,2013-05-03 03:33:00,